sensor_id;sensor_type;location;lat;lon;timestamp;temperature;humidity
12049;DHT22;6085;49.452;8.502;2023-06-05T00:01:45;15.70;64.50
12049;DHT22;6085;49.452;8.502;2023-06-05T00:05:47;15.80;64.10
12049;DHT22;6085;49.452;8.502;2023-06-05T00:09:49;15.80;63.40
12049;DHT22;6085;49.452;8.502;2023-06-05T00:13:53;15.90;63.80
12049;DHT22;6085;49.452;8.502;2023-06-05T00:17:55;15.90;63.50
12049;DHT22;6085;49.452;8.502;2023-06-05T00:21:57;16.00;63.70
12049;DHT22;6085;49.452;8.502;2023-06-05T00:25:59;16.00;64.20
12049;DHT22;6085;49.452;8.502;2023-06-05T00:30:02;15.80;65.80
12049;DHT22;6085;49.452;8.502;2023-06-05T00:34:04;15.60;67.20
12049;DHT22;6085;49.452;8.502;2023-06-05T00:38:06;15.50;68.80
12049;DHT22;6085;49.452;8.502;2023-06-05T00:42:08;15.40;69.90
12049;DHT22;6085;49.452;8.502;2023-06-05T00:46:12;15.40;69.60
12049;DHT22;6085;49.452;8.502;2023-06-05T00:50:15;15.50;70.00
12049;DHT22;6085;49.452;8.502;2023-06-05T00:54:18;15.40;70.50
12049;DHT22;6085;49.452;8.502;2023-06-05T00:58:21;15.40;71.60
12049;DHT22;6085;49.452;8.502;2023-06-05T01:02:24;15.20;72.80
12049;DHT22;6085;49.452;8.502;2023-06-05T01:06:28;15.20;73.90
12049;DHT22;6085;49.452;8.502;2023-06-05T01:10:31;15.20;75.20
12049;DHT22;6085;49.452;8.502;2023-06-05T01:14:35;15.10;75.40
12049;DHT22;6085;49.452;8.502;2023-06-05T01:18:42;15.10;75.90
12049;DHT22;6085;49.452;8.502;2023-06-05T01:22:49;15.10;77.00
12049;DHT22;6085;49.452;8.502;2023-06-05T01:27:01;15.00;77.70
12049;DHT22;6085;49.452;8.502;2023-06-05T01:31:09;15.00;78.70
12049;DHT22;6085;49.452;8.502;2023-06-05T01:35:14;14.90;80.00
12049;DHT22;6085;49.452;8.502;2023-06-05T01:39:19;14.90;80.20
12049;DHT22;6085;49.452;8.502;2023-06-05T01:43:21;14.80;81.50
12049;DHT22;6085;49.452;8.502;2023-06-05T01:47:23;14.70;83.30
12049;DHT22;6085;49.452;8.502;2023-06-05T01:51:25;14.60;84.70
12049;DHT22;6085;49.452;8.502;2023-06-05T01:55:29;14.50;85.70
12049;DHT22;6085;49.452;8.502;2023-06-05T01:59:34;14.50;86.90
12049;DHT22;6085;49.452;8.502;2023-06-05T02:03:36;14.40;88.70
12049;DHT22;6085;49.452;8.502;2023-06-05T02:07:39;14.20;90.10
12049;DHT22;6085;49.452;8.502;2023-06-05T02:11:43;14.20;90.60
12049;DHT22;6085;49.452;8.502;2023-06-05T02:15:46;14.20;90.90
12049;DHT22;6085;49.452;8.502;2023-06-05T02:19:48;14.20;91.20
12049;DHT22;6085;49.452;8.502;2023-06-05T02:23:49;14.20;91.10
12049;DHT22;6085;49.452;8.502;2023-06-05T02:27:53;14.20;91.20
12049;DHT22;6085;49.452;8.502;2023-06-05T02:31:55;14.10;91.70
12049;DHT22;6085;49.452;8.502;2023-06-05T02:35:57;14.00;91.80
12049;DHT22;6085;49.452;8.502;2023-06-05T02:39:59;14.00;92.00
12049;DHT22;6085;49.452;8.502;2023-06-05T02:44:03;13.90;92.30
12049;DHT22;6085;49.452;8.502;2023-06-05T02:48:05;13.80;92.70
12049;DHT22;6085;49.452;8.502;2023-06-05T02:52:07;13.80;93.30
12049;DHT22;6085;49.452;8.502;2023-06-05T02:56:09;13.70;93.60
12049;DHT22;6085;49.452;8.502;2023-06-05T03:00:13;13.70;93.70
12049;DHT22;6085;49.452;8.502;2023-06-05T03:04:17;13.60;93.90
12049;DHT22;6085;49.452;8.502;2023-06-05T03:08:21;13.60;94.40
12049;DHT22;6085;49.452;8.502;2023-06-05T03:12:23;13.40;95.10
12049;DHT22;6085;49.452;8.502;2023-06-05T03:16:26;13.30;96.30
12049;DHT22;6085;49.452;8.502;2023-06-05T03:20:33;13.20;97.20
12049;DHT22;6085;49.452;8.502;2023-06-05T03:24:36;13.10;98.20
12049;DHT22;6085;49.452;8.502;2023-06-05T03:28:39;13.00;98.90
12049;DHT22;6085;49.452;8.502;2023-06-05T03:32:42;13.00;99.70
12049;DHT22;6085;49.452;8.502;2023-06-05T03:36:44;13.00;99.60
12049;DHT22;6085;49.452;8.502;2023-06-05T03:40:46;13.00;99.30
12049;DHT22;6085;49.452;8.502;2023-06-05T03:44:48;13.10;99.10
12049;DHT22;6085;49.452;8.502;2023-06-05T03:48:51;13.20;99.00
12049;DHT22;6085;49.452;8.502;2023-06-05T03:53:00;13.30;98.40
12049;DHT22;6085;49.452;8.502;2023-06-05T03:57:04;13.40;97.90
12049;DHT22;6085;49.452;8.502;2023-06-05T04:01:13;13.50;97.60
12049;DHT22;6085;49.452;8.502;2023-06-05T04:05:16;13.60;97.60
12049;DHT22;6085;49.452;8.502;2023-06-05T04:09:18;13.80;97.00
12049;DHT22;6085;49.452;8.502;2023-06-05T04:13:20;13.90;96.80
12049;DHT22;6085;49.452;8.502;2023-06-05T04:17:23;14.00;96.50
12049;DHT22;6085;49.452;8.502;2023-06-05T04:21:26;14.10;95.80
12049;DHT22;6085;49.452;8.502;2023-06-05T04:25:28;14.20;95.40
12049;DHT22;6085;49.452;8.502;2023-06-05T04:29:30;14.30;94.70
12049;DHT22;6085;49.452;8.502;2023-06-05T04:33:34;14.50;94.40
12049;DHT22;6085;49.452;8.502;2023-06-05T04:37:38;14.70;94.10
12049;DHT22;6085;49.452;8.502;2023-06-05T04:41:41;14.80;93.90
12049;DHT22;6085;49.452;8.502;2023-06-05T04:45:45;15.00;93.10
12049;DHT22;6085;49.452;8.502;2023-06-05T04:49:48;15.20;92.30
12049;DHT22;6085;49.452;8.502;2023-06-05T04:53:53;15.50;90.80
12049;DHT22;6085;49.452;8.502;2023-06-05T04:57:56;15.60;90.00
12049;DHT22;6085;49.452;8.502;2023-06-05T05:02:02;15.60;90.10
12049;DHT22;6085;49.452;8.502;2023-06-05T05:06:04;15.70;90.50
12049;DHT22;6085;49.452;8.502;2023-06-05T05:10:08;15.80;90.10
12049;DHT22;6085;49.452;8.502;2023-06-05T05:14:10;15.90;89.90
12049;DHT22;6085;49.452;8.502;2023-06-05T05:18:12;16.10;88.50
12049;DHT22;6085;49.452;8.502;2023-06-05T05:22:14;16.30;86.40
12049;DHT22;6085;49.452;8.502;2023-06-05T05:26:17;16.50;86.80
12049;DHT22;6085;49.452;8.502;2023-06-05T05:30:19;16.70;85.50
12049;DHT22;6085;49.452;8.502;2023-06-05T05:34:21;16.90;84.50
12049;DHT22;6085;49.452;8.502;2023-06-05T05:38:23;17.20;84.00
12049;DHT22;6085;49.452;8.502;2023-06-05T05:42:27;17.60;83.20
12049;DHT22;6085;49.452;8.502;2023-06-05T05:46:29;18.10;80.90
12049;DHT22;6085;49.452;8.502;2023-06-05T05:50:31;18.70;79.00
12049;DHT22;6085;49.452;8.502;2023-06-05T05:54:33;19.50;77.20
12049;DHT22;6085;49.452;8.502;2023-06-05T05:58:36;20.00;75.30
12049;DHT22;6085;49.452;8.502;2023-06-05T06:02:38;20.50;72.40
12049;DHT22;6085;49.452;8.502;2023-06-05T06:06:41;20.70;70.30
12049;DHT22;6085;49.452;8.502;2023-06-05T06:10:43;20.80;69.00
12049;DHT22;6085;49.452;8.502;2023-06-05T06:14:48;21.00;67.70
12049;DHT22;6085;49.452;8.502;2023-06-05T06:18:50;21.20;67.60
12049;DHT22;6085;49.452;8.502;2023-06-05T06:22:52;21.50;65.90
12049;DHT22;6085;49.452;8.502;2023-06-05T06:26:54;21.80;64.50
12049;DHT22;6085;49.452;8.502;2023-06-05T06:30:57;22.30;64.10
12049;DHT22;6085;49.452;8.502;2023-06-05T06:34:59;22.70;62.90
12049;DHT22;6085;49.452;8.502;2023-06-05T06:39:01;22.90;61.40
12049;DHT22;6085;49.452;8.502;2023-06-05T06:43:04;23.50;60.80
12049;DHT22;6085;49.452;8.502;2023-06-05T06:47:08;24.50;58.40
12049;DHT22;6085;49.452;8.502;2023-06-05T06:51:10;26.00;56.40
12049;DHT22;6085;49.452;8.502;2023-06-05T06:55:12;26.90;54.60
12049;DHT22;6085;49.452;8.502;2023-06-05T06:59:14;28.20;51.60
12049;DHT22;6085;49.452;8.502;2023-06-05T07:03:18;30.10;48.30
12049;DHT22;6085;49.452;8.502;2023-06-05T07:07:22;31.60;44.70
12049;DHT22;6085;49.452;8.502;2023-06-05T07:11:25;33.00;41.80
12049;DHT22;6085;49.452;8.502;2023-06-05T07:15:27;33.50;39.90
12049;DHT22;6085;49.452;8.502;2023-06-05T07:19:31;34.60;38.10
12049;DHT22;6085;49.452;8.502;2023-06-05T07:23:33;35.40;36.00
12049;DHT22;6085;49.452;8.502;2023-06-05T07:27:35;36.20;34.70
12049;DHT22;6085;49.452;8.502;2023-06-05T07:31:37;36.30;33.00
12049;DHT22;6085;49.452;8.502;2023-06-05T07:35:42;35.80;32.90
12049;DHT22;6085;49.452;8.502;2023-06-05T07:39:46;35.80;33.10
12049;DHT22;6085;49.452;8.502;2023-06-05T07:43:50;36.50;32.10
12049;DHT22;6085;49.452;8.502;2023-06-05T07:47:52;36.60;32.10
12049;DHT22;6085;49.452;8.502;2023-06-05T07:51:56;37.20;31.90
12049;DHT22;6085;49.452;8.502;2023-06-05T07:55:58;37.90;30.70
12049;DHT22;6085;49.452;8.502;2023-06-05T08:00:00;37.80;30.20
12049;DHT22;6085;49.452;8.502;2023-06-05T08:04:06;35.40;31.20
12049;DHT22;6085;49.452;8.502;2023-06-05T08:08:10;35.90;31.80
12049;DHT22;6085;49.452;8.502;2023-06-05T08:12:12;35.20;31.50
12049;DHT22;6085;49.452;8.502;2023-06-05T08:16:14;35.70;32.20
12049;DHT22;6085;49.452;8.502;2023-06-05T08:20:16;36.00;31.20
12049;DHT22;6085;49.452;8.502;2023-06-05T08:24:19;36.70;30.80
12049;DHT22;6085;49.452;8.502;2023-06-05T08:28:21;37.30;30.50
12049;DHT22;6085;49.452;8.502;2023-06-05T08:32:23;37.80;30.00
12049;DHT22;6085;49.452;8.502;2023-06-05T08:36:25;38.30;29.90
12049;DHT22;6085;49.452;8.502;2023-06-05T08:40:29;39.10;29.20
12049;DHT22;6085;49.452;8.502;2023-06-05T08:44:32;39.40;29.10
12049;DHT22;6085;49.452;8.502;2023-06-05T08:48:38;39.90;29.10
12049;DHT22;6085;49.452;8.502;2023-06-05T08:52:43;40.60;28.70
12049;DHT22;6085;49.452;8.502;2023-06-05T08:56:48;40.60;28.80
12049;DHT22;6085;49.452;8.502;2023-06-05T09:00:52;40.40;29.20
12049;DHT22;6085;49.452;8.502;2023-06-05T09:04:54;40.80;28.50
12049;DHT22;6085;49.452;8.502;2023-06-05T09:08:59;40.90;28.30
12049;DHT22;6085;49.452;8.502;2023-06-05T09:13:03;40.30;28.90
12049;DHT22;6085;49.452;8.502;2023-06-05T09:17:12;39.00;29.60
12049;DHT22;6085;49.452;8.502;2023-06-05T09:21:15;39.70;29.30
12049;DHT22;6085;49.452;8.502;2023-06-05T09:25:17;39.70;28.90
12049;DHT22;6085;49.452;8.502;2023-06-05T09:29:28;38.80;29.90
12049;DHT22;6085;49.452;8.502;2023-06-05T09:33:32;38.80;29.90
12049;DHT22;6085;49.452;8.502;2023-06-05T09:37:34;38.50;31.00
12049;DHT22;6085;49.452;8.502;2023-06-05T09:41:42;39.00;30.00
12049;DHT22;6085;49.452;8.502;2023-06-05T09:45:46;38.80;30.50
12049;DHT22;6085;49.452;8.502;2023-06-05T09:49:48;38.40;30.60
12049;DHT22;6085;49.452;8.502;2023-06-05T09:53:51;39.10;30.20
12049;DHT22;6085;49.452;8.502;2023-06-05T09:57:54;39.60;30.00
12049;DHT22;6085;49.452;8.502;2023-06-05T10:02:00;39.70;29.70
12049;DHT22;6085;49.452;8.502;2023-06-05T10:06:06;39.70;29.90
12049;DHT22;6085;49.452;8.502;2023-06-05T10:10:09;40.10;29.60
12049;DHT22;6085;49.452;8.502;2023-06-05T10:14:12;40.10;29.70
12049;DHT22;6085;49.452;8.502;2023-06-05T10:18:16;40.00;29.70
12049;DHT22;6085;49.452;8.502;2023-06-05T10:22:18;38.70;30.50
12049;DHT22;6085;49.452;8.502;2023-06-05T10:26:30;37.30;32.10
12049;DHT22;6085;49.452;8.502;2023-06-05T10:31:14;37.30;32.60
12049;DHT22;6085;49.452;8.502;2023-06-05T10:35:29;38.90;30.90
12049;DHT22;6085;49.452;8.502;2023-06-05T10:39:34;38.70;30.50
12049;DHT22;6085;49.452;8.502;2023-06-05T10:43:46;39.20;30.70
12049;DHT22;6085;49.452;8.502;2023-06-05T10:47:49;39.80;30.10
12049;DHT22;6085;49.452;8.502;2023-06-05T10:51:53;40.40;29.80
12049;DHT22;6085;49.452;8.502;2023-06-05T10:55:59;38.90;31.00
12049;DHT22;6085;49.452;8.502;2023-06-05T11:00:08;35.50;33.00
12049;DHT22;6085;49.452;8.502;2023-06-05T11:04:11;35.60;33.50
12049;DHT22;6085;49.452;8.502;2023-06-05T11:08:16;35.80;33.40
12049;DHT22;6085;49.452;8.502;2023-06-05T11:12:20;34.60;35.30
12049;DHT22;6085;49.452;8.502;2023-06-05T11:16:26;35.10;34.10
12049;DHT22;6085;49.452;8.502;2023-06-05T11:20:49;36.70;32.40
12049;DHT22;6085;49.452;8.502;2023-06-05T11:25:26;37.10;30.50
12049;DHT22;6085;49.452;8.502;2023-06-05T11:29:29;37.50;30.30
12049;DHT22;6085;49.452;8.502;2023-06-05T11:33:31;37.90;30.20
12049;DHT22;6085;49.452;8.502;2023-06-05T11:37:33;37.90;29.30
12049;DHT22;6085;49.452;8.502;2023-06-05T11:41:43;36.40;29.70
12049;DHT22;6085;49.452;8.502;2023-06-05T11:45:49;35.90;30.10
12049;DHT22;6085;49.452;8.502;2023-06-05T11:49:52;35.10;30.70
12049;DHT22;6085;49.452;8.502;2023-06-05T11:53:54;34.10;30.40
12049;DHT22;6085;49.452;8.502;2023-06-05T11:58:00;33.10;31.60
12049;DHT22;6085;49.452;8.502;2023-06-05T12:02:04;33.20;32.00
12049;DHT22;6085;49.452;8.502;2023-06-05T12:06:06;32.30;32.90
12049;DHT22;6085;49.452;8.502;2023-06-05T12:10:09;32.20;32.80
12049;DHT22;6085;49.452;8.502;2023-06-05T12:14:14;32.10;32.90
12049;DHT22;6085;49.452;8.502;2023-06-05T12:18:31;30.70;34.30
12049;DHT22;6085;49.452;8.502;2023-06-05T12:22:34;30.10;34.80
12049;DHT22;6085;49.452;8.502;2023-06-05T12:26:52;30.60;35.10
12049;DHT22;6085;49.452;8.502;2023-06-05T12:30:57;30.70;34.30
12049;DHT22;6085;49.452;8.502;2023-06-05T12:34:59;30.80;34.10
12049;DHT22;6085;49.452;8.502;2023-06-05T12:39:04;30.20;34.40
12049;DHT22;6085;49.452;8.502;2023-06-05T12:43:16;30.00;34.40
12049;DHT22;6085;49.452;8.502;2023-06-05T12:47:20;29.90;34.90
12049;DHT22;6085;49.452;8.502;2023-06-05T12:51:22;29.70;34.00
12049;DHT22;6085;49.452;8.502;2023-06-05T12:55:24;29.80;35.80
12049;DHT22;6085;49.452;8.502;2023-06-05T12:59:28;29.60;35.60
12049;DHT22;6085;49.452;8.502;2023-06-05T13:03:31;29.40;35.30
12049;DHT22;6085;49.452;8.502;2023-06-05T13:07:33;29.20;35.70
12049;DHT22;6085;49.452;8.502;2023-06-05T13:11:36;29.00;36.30
12049;DHT22;6085;49.452;8.502;2023-06-05T13:15:38;28.80;36.40
12049;DHT22;6085;49.452;8.502;2023-06-05T13:19:41;28.70;36.30
12049;DHT22;6085;49.452;8.502;2023-06-05T13:23:43;28.70;35.70
12049;DHT22;6085;49.452;8.502;2023-06-05T13:27:45;28.50;36.00
12049;DHT22;6085;49.452;8.502;2023-06-05T13:31:47;28.40;36.50
12049;DHT22;6085;49.452;8.502;2023-06-05T13:35:51;28.30;36.20
12049;DHT22;6085;49.452;8.502;2023-06-05T13:39:53;28.20;37.70
12049;DHT22;6085;49.452;8.502;2023-06-05T13:43:55;28.40;36.90
12049;DHT22;6085;49.452;8.502;2023-06-05T13:47:58;28.40;35.20
12049;DHT22;6085;49.452;8.502;2023-06-05T13:52:01;28.70;36.20
12049;DHT22;6085;49.452;8.502;2023-06-05T13:56:04;28.90;36.40
12049;DHT22;6085;49.452;8.502;2023-06-05T14:00:07;29.40;34.70
12049;DHT22;6085;49.452;8.502;2023-06-05T14:04:09;29.30;35.00
12049;DHT22;6085;49.452;8.502;2023-06-05T14:08:13;29.00;35.60
12049;DHT22;6085;49.452;8.502;2023-06-05T14:12:15;28.70;34.30
12049;DHT22;6085;49.452;8.502;2023-06-05T14:16:18;28.40;35.90
12049;DHT22;6085;49.452;8.502;2023-06-05T14:20:20;28.00;37.10
12049;DHT22;6085;49.452;8.502;2023-06-05T14:24:24;27.80;37.10
12049;DHT22;6085;49.452;8.502;2023-06-05T14:28:26;27.80;36.50
12049;DHT22;6085;49.452;8.502;2023-06-05T14:32:29;27.40;36.10
12049;DHT22;6085;49.452;8.502;2023-06-05T14:36:34;27.10;37.00
12049;DHT22;6085;49.452;8.502;2023-06-05T14:40:38;27.00;38.50
12049;DHT22;6085;49.452;8.502;2023-06-05T14:44:40;27.30;37.40
12049;DHT22;6085;49.452;8.502;2023-06-05T14:48:42;27.30;37.00
12049;DHT22;6085;49.452;8.502;2023-06-05T14:52:45;27.20;37.00
12049;DHT22;6085;49.452;8.502;2023-06-05T14:56:51;27.10;37.10
12049;DHT22;6085;49.452;8.502;2023-06-05T15:00:53;27.20;37.20
12049;DHT22;6085;49.452;8.502;2023-06-05T15:04:55;27.30;37.80
12049;DHT22;6085;49.452;8.502;2023-06-05T15:08:59;27.40;37.30
12049;DHT22;6085;49.452;8.502;2023-06-05T15:13:02;27.50;36.80
12049;DHT22;6085;49.452;8.502;2023-06-05T15:17:04;27.50;37.20
12049;DHT22;6085;49.452;8.502;2023-06-05T15:21:07;27.60;36.80
12049;DHT22;6085;49.452;8.502;2023-06-05T15:25:09;27.30;37.20
12049;DHT22;6085;49.452;8.502;2023-06-05T15:29:13;27.10;37.60
12049;DHT22;6085;49.452;8.502;2023-06-05T15:33:17;27.00;37.80
12049;DHT22;6085;49.452;8.502;2023-06-05T15:37:19;26.90;38.50
12049;DHT22;6085;49.452;8.502;2023-06-05T15:41:21;26.90;38.20
12049;DHT22;6085;49.452;8.502;2023-06-05T15:45:25;26.80;38.00
12049;DHT22;6085;49.452;8.502;2023-06-05T15:49:28;26.80;37.70
12049;DHT22;6085;49.452;8.502;2023-06-05T15:53:30;26.70;38.10
12049;DHT22;6085;49.452;8.502;2023-06-05T15:57:32;26.60;37.50
12049;DHT22;6085;49.452;8.502;2023-06-05T16:01:35;26.50;38.10
12049;DHT22;6085;49.452;8.502;2023-06-05T16:05:37;26.60;38.50
12049;DHT22;6085;49.452;8.502;2023-06-05T16:09:40;26.60;38.70
12049;DHT22;6085;49.452;8.502;2023-06-05T16:13:42;26.60;38.90
12049;DHT22;6085;49.452;8.502;2023-06-05T16:17:46;26.60;39.10
12049;DHT22;6085;49.452;8.502;2023-06-05T16:21:50;26.50;38.50
12049;DHT22;6085;49.452;8.502;2023-06-05T16:25:52;26.50;38.50
12049;DHT22;6085;49.452;8.502;2023-06-05T16:29:54;26.50;38.20
12049;DHT22;6085;49.452;8.502;2023-06-05T16:34:00;26.60;37.60
12049;DHT22;6085;49.452;8.502;2023-06-05T16:38:02;26.50;37.40
12049;DHT22;6085;49.452;8.502;2023-06-05T16:42:06;26.40;37.70
12049;DHT22;6085;49.452;8.502;2023-06-05T16:46:08;26.30;37.80
12049;DHT22;6085;49.452;8.502;2023-06-05T16:50:12;26.30;37.40
12049;DHT22;6085;49.452;8.502;2023-06-05T16:54:14;26.20;37.40
12049;DHT22;6085;49.452;8.502;2023-06-05T16:58:15;26.30;37.60
12049;DHT22;6085;49.452;8.502;2023-06-05T17:02:18;26.30;37.50
12049;DHT22;6085;49.452;8.502;2023-06-05T17:06:21;26.30;37.90
12049;DHT22;6085;49.452;8.502;2023-06-05T17:10:23;26.40;37.60
12049;DHT22;6085;49.452;8.502;2023-06-05T17:14:26;26.70;36.80
12049;DHT22;6085;49.452;8.502;2023-06-05T17:18:28;26.60;36.90
12049;DHT22;6085;49.452;8.502;2023-06-05T17:22:31;26.40;37.60
12049;DHT22;6085;49.452;8.502;2023-06-05T17:26:33;26.30;39.20
12049;DHT22;6085;49.452;8.502;2023-06-05T17:30:35;26.50;38.40
12049;DHT22;6085;49.452;8.502;2023-06-05T17:34:37;26.90;38.40
12049;DHT22;6085;49.452;8.502;2023-06-05T17:38:41;27.20;38.60
12049;DHT22;6085;49.452;8.502;2023-06-05T17:42:43;27.50;38.40
12049;DHT22;6085;49.452;8.502;2023-06-05T17:46:45;27.20;38.50
12049;DHT22;6085;49.452;8.502;2023-06-05T17:50:47;26.70;39.60
12049;DHT22;6085;49.452;8.502;2023-06-05T17:54:51;26.50;40.20
12049;DHT22;6085;49.452;8.502;2023-06-05T17:58:53;26.40;40.70
12049;DHT22;6085;49.452;8.502;2023-06-05T18:02:54;26.30;40.50
12049;DHT22;6085;49.452;8.502;2023-06-05T18:06:56;26.10;41.10
12049;DHT22;6085;49.452;8.502;2023-06-05T18:11:00;25.90;41.60
12049;DHT22;6085;49.452;8.502;2023-06-05T18:15:02;25.90;41.90
12049;DHT22;6085;49.452;8.502;2023-06-05T18:19:04;25.90;42.10
12049;DHT22;6085;49.452;8.502;2023-06-05T18:23:06;25.60;42.60
12049;DHT22;6085;49.452;8.502;2023-06-05T18:27:09;25.20;42.90
12049;DHT22;6085;49.452;8.502;2023-06-05T18:31:12;24.90;43.20
12049;DHT22;6085;49.452;8.502;2023-06-05T18:35:15;24.70;43.60
12049;DHT22;6085;49.452;8.502;2023-06-05T18:39:18;24.50;43.50
12049;DHT22;6085;49.452;8.502;2023-06-05T18:43:21;24.30;44.20
12049;DHT22;6085;49.452;8.502;2023-06-05T18:47:23;24.10;44.40
12049;DHT22;6085;49.452;8.502;2023-06-05T18:51:25;24.00;44.60
12049;DHT22;6085;49.452;8.502;2023-06-05T18:55:27;23.90;44.30
12049;DHT22;6085;49.452;8.502;2023-06-05T18:59:30;23.70;44.40
12049;DHT22;6085;49.452;8.502;2023-06-05T19:03:32;23.60;44.60
12049;DHT22;6085;49.452;8.502;2023-06-05T19:07:34;23.50;44.90
12049;DHT22;6085;49.452;8.502;2023-06-05T19:11:37;23.30;45.10
12049;DHT22;6085;49.452;8.502;2023-06-05T19:15:44;23.10;45.30
12049;DHT22;6085;49.452;8.502;2023-06-05T19:19:47;22.90;46.10
12049;DHT22;6085;49.452;8.502;2023-06-05T19:23:49;22.80;45.90
12049;DHT22;6085;49.452;8.502;2023-06-05T19:27:51;22.70;46.30
12049;DHT22;6085;49.452;8.502;2023-06-05T19:31:55;22.50;46.50
12049;DHT22;6085;49.452;8.502;2023-06-05T19:35:57;22.40;46.70
12049;DHT22;6085;49.452;8.502;2023-06-05T19:40:00;22.30;46.80
12049;DHT22;6085;49.452;8.502;2023-06-05T19:44:03;22.10;47.00
12049;DHT22;6085;49.452;8.502;2023-06-05T19:48:06;22.00;47.40
12049;DHT22;6085;49.452;8.502;2023-06-05T19:52:08;21.80;47.60
12049;DHT22;6085;49.452;8.502;2023-06-05T19:56:10;21.70;48.00
12049;DHT22;6085;49.452;8.502;2023-06-05T20:00:17;21.60;48.30
12049;DHT22;6085;49.452;8.502;2023-06-05T20:04:21;21.40;48.90
12049;DHT22;6085;49.452;8.502;2023-06-05T20:08:23;21.20;48.90
12049;DHT22;6085;49.452;8.502;2023-06-05T20:12:25;21.10;49.40
12049;DHT22;6085;49.452;8.502;2023-06-05T20:16:26;21.10;49.40
12049;DHT22;6085;49.452;8.502;2023-06-05T20:20:30;21.10;49.40
12049;DHT22;6085;49.452;8.502;2023-06-05T20:24:33;21.20;49.40
12049;DHT22;6085;49.452;8.502;2023-06-05T20:28:36;21.30;49.50
12049;DHT22;6085;49.452;8.502;2023-06-05T20:32:38;21.40;49.50
12049;DHT22;6085;49.452;8.502;2023-06-05T20:36:41;21.30;49.40
12049;DHT22;6085;49.452;8.502;2023-06-05T20:40:45;21.30;49.60
12049;DHT22;6085;49.452;8.502;2023-06-05T20:44:49;21.20;49.80
12049;DHT22;6085;49.452;8.502;2023-06-05T20:48:57;21.20;50.00
12049;DHT22;6085;49.452;8.502;2023-06-05T20:53:02;21.00;50.10
12049;DHT22;6085;49.452;8.502;2023-06-05T20:57:09;21.00;50.50
12049;DHT22;6085;49.452;8.502;2023-06-05T21:01:11;20.90;50.50
12049;DHT22;6085;49.452;8.502;2023-06-05T21:05:14;20.90;50.70
12049;DHT22;6085;49.452;8.502;2023-06-05T21:09:17;20.80;51.20
12049;DHT22;6085;49.452;8.502;2023-06-05T21:13:19;20.70;51.50
12049;DHT22;6085;49.452;8.502;2023-06-05T21:17:21;20.60;52.00
12049;DHT22;6085;49.452;8.502;2023-06-05T21:21:23;20.40;52.50
12049;DHT22;6085;49.452;8.502;2023-06-05T21:25:26;20.30;53.30
12049;DHT22;6085;49.452;8.502;2023-06-05T21:29:28;20.10;53.70
12049;DHT22;6085;49.452;8.502;2023-06-05T21:33:32;19.90;54.80
12049;DHT22;6085;49.452;8.502;2023-06-05T21:37:34;19.80;56.00
12049;DHT22;6085;49.452;8.502;2023-06-05T21:41:37;19.70;56.70
12049;DHT22;6085;49.452;8.502;2023-06-05T21:45:39;19.50;57.20
12049;DHT22;6085;49.452;8.502;2023-06-05T21:49:41;19.40;58.10
12049;DHT22;6085;49.452;8.502;2023-06-05T21:53:44;19.20;58.60
12049;DHT22;6085;49.452;8.502;2023-06-05T21:57:47;19.00;59.30
12049;DHT22;6085;49.452;8.502;2023-06-05T22:01:50;18.80;59.80
12049;DHT22;6085;49.452;8.502;2023-06-05T22:05:51;18.70;60.60
12049;DHT22;6085;49.452;8.502;2023-06-05T22:09:58;18.50;61.80
12049;DHT22;6085;49.452;8.502;2023-06-05T22:14:01;18.40;64.60
12049;DHT22;6085;49.452;8.502;2023-06-05T22:18:03;18.50;71.00
12049;DHT22;6085;49.452;8.502;2023-06-05T22:22:06;18.60;74.80
12049;DHT22;6085;49.452;8.502;2023-06-05T22:26:08;18.70;85.20
12049;DHT22;6085;49.452;8.502;2023-06-05T22:30:11;18.90;91.10
12049;DHT22;6085;49.452;8.502;2023-06-05T22:34:13;19.00;93.60
12049;DHT22;6085;49.452;8.502;2023-06-05T22:38:15;18.90;95.80
12049;DHT22;6085;49.452;8.502;2023-06-05T22:42:17;18.80;98.50
12049;DHT22;6085;49.452;8.502;2023-06-05T22:46:20;18.80;99.90
12049;DHT22;6085;49.452;8.502;2023-06-05T22:50:22;18.90;99.90
12049;DHT22;6085;49.452;8.502;2023-06-05T22:54:24;19.00;99.90
12049;DHT22;6085;49.452;8.502;2023-06-05T22:58:26;19.10;99.90
12049;DHT22;6085;49.452;8.502;2023-06-05T23:02:29;19.10;99.90
12049;DHT22;6085;49.452;8.502;2023-06-05T23:06:31;19.00;99.90
12049;DHT22;6085;49.452;8.502;2023-06-05T23:10:33;18.90;99.90
12049;DHT22;6085;49.452;8.502;2023-06-05T23:14:35;18.90;99.90
12049;DHT22;6085;49.452;8.502;2023-06-05T23:18:40;19.00;99.90
12049;DHT22;6085;49.452;8.502;2023-06-05T23:22:42;19.00;99.90
12049;DHT22;6085;49.452;8.502;2023-06-05T23:26:44;19.10;99.90
12049;DHT22;6085;49.452;8.502;2023-06-05T23:30:46;19.00;99.90
12049;DHT22;6085;49.452;8.502;2023-06-05T23:34:49;19.00;99.90
12049;DHT22;6085;49.452;8.502;2023-06-05T23:38:51;18.90;99.90
12049;DHT22;6085;49.452;8.502;2023-06-05T23:42:54;18.90;99.90
12049;DHT22;6085;49.452;8.502;2023-06-05T23:46:58;18.90;99.90
12049;DHT22;6085;49.452;8.502;2023-06-05T23:51:02;18.80;99.90
12049;DHT22;6085;49.452;8.502;2023-06-05T23:55:05;18.80;99.90
12049;DHT22;6085;49.452;8.502;2023-06-05T23:59:07;18.80;99.90
